»·PEaware :: UAL722 KSAN-KBUR

UAL722 :: KSAN-KBUR

FLIGHT INFORMATION

Flight Status: Arrived
Operator:
United Airlines
More flights by this operator :: More flights under this callsign
Pilot: Mike S. (2156)
Aircraft: Unknown
(/L)
More flights by this aircraft type
Origin: KSAN San Diego Intl-Lindbergh
United States
Destination: KBUR Bob Hope-Burbank
United States
More flights between these airports :: More routes between these airports
Route: +CWARD2 LAX SILEX
File this flight plan on PilotEdge
Remarks:
Altitude:
(Current/Filed)
10,000ft
Speed:
(Current/Filed)
375kts
Departed: 18-Jul-20 05:10 PM
Arrived: 18-Jul-20 05:41 PM
Distance/Time
Traveled:
105nm/0:31
Distance/Time
To Go:
Arrived

Flight Plot

Page will automatically refresh every two minutes.


Map Options




Map Legend


Flown Route
Filed Route
Departure Airport
Arrival Airport
Navaid (VOR, NDB)
Fix

Horizontal Profiles

Position Reports

Time Latitude Longitude Heading Altitude Ground
Speed
18-Jul-20 16:50 32.733947 -117.200444 255 24ft 0kts
18-Jul-20 16:51 32.733947 -117.200444 255 24ft 0kts
18-Jul-20 16:53 32.733947 -117.200444 255 24ft 0kts
18-Jul-20 16:53 32.733947 -117.200444 255 24ft 0kts
18-Jul-20 16:54 32.733947 -117.200444 255 24ft 0kts
18-Jul-20 16:56 32.733947 -117.200444 255 24ft 0kts
18-Jul-20 16:56 32.733947 -117.200444 255 24ft 0kts
18-Jul-20 16:57 32.733947 -117.200444 255 24ft 0kts
18-Jul-20 16:58 32.733947 -117.200444 255 24ft 0kts
18-Jul-20 16:59 32.734017 -117.200077 272 24ft 3kts
18-Jul-20 17:00 32.733644 -117.199664 344 24ft 0kts
18-Jul-20 17:01 32.733644 -117.199664 344 24ft 0kts
18-Jul-20 17:02 32.733644 -117.199664 344 24ft 0kts
18-Jul-20 17:03 32.733644 -117.199664 344 24ft 0kts
18-Jul-20 17:04 32.733752 -117.199698 345 24ft 8kts
18-Jul-20 17:05 32.733571 -117.193978 106 24ft 29kts
18-Jul-20 17:06 32.731270 -117.184504 105 24ft 29kts
18-Jul-20 17:07 32.729487 -117.176971 77 24ft 0kts
18-Jul-20 17:08 32.730227 -117.175897 289 24ft 9kts
18-Jul-20 17:09 32.740120 -117.215241 293 1429ft 183kts
18-Jul-20 17:10 32.774641 -117.275156 303 4345ft 243kts
18-Jul-20 17:11 32.817198 -117.346471 306 7536ft 281kts
18-Jul-20 17:12 32.866455 -117.422229 305 9843ft 299kts
18-Jul-20 17:13 32.924951 -117.513465 306 9991ft 382kts
18-Jul-20 17:14 32.989873 -117.614496 306 9980ft 383kts
18-Jul-20 17:15 33.054678 -117.715601 306 9985ft 383kts
18-Jul-20 17:16 33.133136 -117.800858 319 9996ft 381kts
18-Jul-20 17:17 33.219201 -117.872886 346 9993ft 384kts
18-Jul-20 17:18 33.324600 -117.894433 348 10017ft 385kts
18-Jul-20 17:19 33.421838 -117.940563 316 10024ft 383kts
18-Jul-20 17:20 33.502925 -118.022421 320 10017ft 372kts
18-Jul-20 17:21 33.576568 -118.092331 320 9092ft 301kts
18-Jul-20 17:22 33.639963 -118.152746 320 7993ft 278kts
18-Jul-20 17:23 33.695807 -118.205915 320 6887ft 247kts
18-Jul-20 17:24 33.748413 -118.256026 319 6033ft 235kts
18-Jul-20 17:25 33.799240 -118.304475 319 6006ft 234kts
18-Jul-20 17:26 33.850336 -118.353188 319 6008ft 234kts
18-Jul-20 17:27 33.901393 -118.401873 319 6016ft 233kts
18-Jul-20 17:28 33.954207 -118.449316 322 5619ft 243kts
18-Jul-20 17:29 34.007185 -118.494882 322 5019ft 229kts
18-Jul-20 17:30 34.056449 -118.536985 322 4995ft 203kts
18-Jul-20 17:31 34.102828 -118.576429 322 4300ft 187kts
18-Jul-20 17:32 34.140911 -118.614718 313 3995ft 177kts
18-Jul-20 17:33 34.176134 -118.656926 312 3999ft 179kts
18-Jul-20 17:34 34.212243 -118.636011 78 3440ft 191kts
18-Jul-20 17:35 34.200875 -118.576398 94 3002ft 185kts
18-Jul-20 17:36 34.199909 -118.516498 91 2985ft 175kts
18-Jul-20 17:37 34.199112 -118.457733 92 2227ft 165kts
18-Jul-20 17:38 34.198537 -118.405771 92 1345ft 147kts
18-Jul-20 17:39 34.197749 -118.358519 90 731ft 93kts
18-Jul-20 17:40 34.196996 -118.352842 176 730ft 0kts
18-Jul-20 17:41 34.196996 -118.352842 176 730ft 0kts
18-Jul-20 17:42 34.196996 -118.352842 176 730ft 0kts

Navigation Log

Ident Type
Flight plan parsing failed, navigation log unavailable